Time;durP1;ratioP1;P1;durP2;ratioP2;P2;SDS_P1;SDS_P2;PMS_P1;PMS_P2;Temp;Humidity;BMP_temperature;BMP_pressure;BME280_temperature;BME280_humidity;BME280_pressure;Samples;Min_cycle;Max_cycle;Signal;HPM_P1;HPM_P2
2023/08/22 00:00:16;;;;;;;3.42;1.92;;;24.00;99.90;;;;;;5085327;28;20238;-65
2023/08/22 00:02:43;;;;;;;2.80;2.10;;;24.00;99.90;;;;;;5083724;28;20783;-65
2023/08/22 00:05:10;;;;;;;3.55;2.22;;;23.90;99.90;;;;;;5084868;28;20229;-66
2023/08/22 00:07:38;;;;;;;2.72;1.88;;;23.90;99.90;;;;;;5084945;28;20301;-66
2023/08/22 00:10:07;;;;;;;3.90;2.13;;;23.90;99.90;;;;;;5085354;28;20207;-66
2023/08/22 00:12:34;;;;;;;2.60;2.00;;;23.90;99.90;;;;;;5085392;28;20294;-66
2023/08/22 00:15:04;;;;;;;4.57;2.10;;;23.80;99.90;;;;;;5069345;28;20207;-65
2023/08/22 00:17:31;;;;;;;4.15;1.95;;;23.80;99.90;;;;;;5064868;28;20215;-65
2023/08/22 00:19:57;;;;;;;5.93;2.30;;;23.80;99.90;;;;;;5065241;28;20215;-65
2023/08/22 00:22:24;;;;;;;3.42;1.95;;;23.80;99.90;;;;;;5068437;28;20322;-65
2023/08/22 00:24:51;;;;;;;3.85;1.95;;;23.80;99.90;;;;;;5080769;28;20286;-65
2023/08/22 00:27:19;;;;;;;3.17;1.85;;;23.80;99.90;;;;;;5085039;28;20691;-65
2023/08/22 00:29:46;;;;;;;3.40;1.92;;;23.70;99.90;;;;;;5080307;28;20246;-65
2023/08/22 00:32:13;;;;;;;3.95;1.92;;;23.70;99.90;;;;;;5069460;28;20201;-65
2023/08/22 00:34:40;;;;;;;2.88;2.15;;;23.80;99.90;;;;;;5073357;28;20244;-65
2023/08/22 00:37:07;;;;;;;3.35;2.28;;;23.80;99.90;;;;;;5076135;28;20253;-65
2023/08/22 00:39:34;;;;;;;2.65;1.90;;;23.70;99.90;;;;;;5065208;28;20318;-65
2023/08/22 00:42:01;;;;;;;4.53;2.38;;;23.70;99.90;;;;;;5080335;28;20623;-65
2023/08/22 00:44:29;;;;;;;3.63;2.58;;;23.70;99.90;;;;;;5084794;28;20252;-65
2023/08/22 00:46:56;;;;;;;3.90;1.95;;;23.60;99.90;;;;;;5085139;28;20326;-65
2023/08/22 00:49:23;;;;;;;3.28;2.00;;;23.60;99.90;;;;;;5084906;28;20293;-65
2023/08/22 00:51:50;;;;;;;2.65;1.92;;;23.60;99.90;;;;;;5083764;28;20688;-65
2023/08/22 00:54:19;;;;;;;2.67;1.95;;;23.60;99.90;;;;;;5065010;28;20289;-65
2023/08/22 00:56:46;;;;;;;3.78;2.05;;;23.60;99.90;;;;;;5064787;28;20207;-65
2023/08/22 00:59:13;;;;;;;6.40;2.10;;;23.50;99.90;;;;;;5064685;28;20757;-65
2023/08/22 01:01:42;;;;;;;3.00;2.35;;;23.50;99.90;;;;;;5064294;28;20231;-65
2023/08/22 01:04:08;;;;;;;3.40;2.20;;;23.50;99.90;;;;;;5083593;28;20293;-65
2023/08/22 01:06:45;;;;;;;5.90;2.40;;;23.50;99.90;;;;;;5084406;28;20325;-65
2023/08/22 01:09:19;;;;;;;5.30;2.20;;;23.50;99.90;;;;;;5078695;28;20278;-65
2023/08/22 01:11:50;;;;;;;3.67;2.00;;;23.50;99.90;;;;;;5091733;28;20661;-65
2023/08/22 01:14:20;;;;;;;3.60;2.05;;;23.40;99.90;;;;;;5084412;28;20666;-65
2023/08/22 01:16:49;;;;;;;3.08;2.13;;;23.40;99.90;;;;;;5084608;28;20194;-65
2023/08/22 01:19:19;;;;;;;3.22;2.20;;;23.40;99.90;;;;;;5084787;28;20207;-65
2023/08/22 01:21:52;;;;;;;2.40;2.20;;;23.40;99.90;;;;;;5084382;28;20745;-65
2023/08/22 01:24:19;;;;;;;8.52;2.20;;;23.40;99.90;;;;;;5083078;28;20294;-65
2023/08/22 01:26:47;;;;;;;5.03;2.15;;;23.40;99.90;;;;;;5084277;28;20288;-65
2023/08/22 01:29:18;;;;;;;7.82;2.53;;;23.40;99.90;;;;;;5084161;28;20222;-65
2023/08/22 01:32:00;;;;;;;5.47;2.47;;;23.30;99.90;;;;;;5064396;28;20206;-65
2023/08/22 01:34:30;;;;;;;3.47;2.40;;;23.40;99.90;;;;;;5081775;28;20483;-65
2023/08/22 01:37:00;;;;;;;3.33;2.10;;;23.40;99.90;;;;;;5086396;28;20438;-65
2023/08/22 01:39:28;;;;;;;3.67;2.30;;;23.30;99.90;;;;;;5086632;28;20287;-65
2023/08/22 01:41:56;;;;;;;5.13;2.10;;;23.20;99.90;;;;;;5087500;28;20221;-65
2023/08/22 01:44:23;;;;;;;4.53;2.03;;;23.30;99.90;;;;;;5067624;28;20298;-65
2023/08/22 01:46:50;;;;;;;4.57;1.85;;;23.20;99.90;;;;;;5067981;28;20603;-65
2023/08/22 01:49:17;;;;;;;3.40;2.25;;;23.30;99.90;;;;;;5067414;28;20235;-65
2023/08/22 01:51:44;;;;;;;3.17;1.90;;;23.20;99.90;;;;;;5078728;28;20685;-65
2023/08/22 01:54:12;;;;;;;4.55;2.35;;;23.30;99.90;;;;;;5069433;28;20225;-65
2023/08/22 01:56:39;;;;;;;4.30;2.28;;;23.20;99.90;;;;;;5067304;28;20211;-65
2023/08/22 01:59:06;;;;;;;3.63;2.25;;;23.30;99.90;;;;;;5067352;28;20248;-65
2023/08/22 02:01:33;;;;;;;4.28;1.90;;;23.30;99.90;;;;;;5067824;28;20318;-65
2023/08/22 02:04:04;;;;;;;8.75;2.03;;;23.30;99.90;;;;;;5068020;28;20322;-65
2023/08/22 02:06:31;;;;;;;2.22;1.85;;;23.30;99.90;;;;;;5067325;28;20195;-65
2023/08/22 02:08:58;;;;;;;5.35;1.80;;;23.30;99.90;;;;;;5090522;28;20213;-65
2023/08/22 02:11:27;;;;;;;3.90;1.90;;;23.30;99.90;;;;;;5089839;28;20301;-65
2023/08/22 02:13:54;;;;;;;4.35;1.88;;;23.20;99.90;;;;;;5067327;28;20213;-65
2023/08/22 02:16:21;;;;;;;4.28;1.80;;;23.20;99.90;;;;;;5067894;28;20217;-65
2023/08/22 02:18:48;;;;;;;6.22;1.90;;;23.30;99.90;;;;;;5066943;28;20704;-65
2023/08/22 02:21:15;;;;;;;2.78;2.05;;;23.20;99.90;;;;;;5067539;28;20756;-65
2023/08/22 02:23:42;;;;;;;7.30;2.13;;;23.30;99.90;;;;;;5073926;28;20237;-65
2023/08/22 02:26:09;;;;;;;3.42;1.70;;;23.30;99.90;;;;;;5067223;28;20565;-65
2023/08/22 02:28:37;;;;;;;4.03;2.10;;;23.20;99.90;;;;;;5066875;28;20261;-65
2023/08/22 02:31:04;;;;;;;4.38;1.80;;;23.20;99.90;;;;;;5071616;28;20327;-65
2023/08/22 02:33:31;;;;;;;2.63;1.83;;;23.20;99.90;;;;;;5077260;28;20287;-65
2023/08/22 02:35:58;;;;;;;3.80;1.60;;;23.20;99.90;;;;;;5066984;28;20318;-65
2023/08/22 02:38:24;;;;;;;4.95;1.90;;;23.20;99.90;;;;;;5065525;28;20227;-65
2023/08/22 02:40:51;;;;;;;3.30;1.70;;;23.20;99.90;;;;;;5066236;28;20298;-65
2023/08/22 02:43:18;;;;;;;2.80;1.90;;;23.10;99.90;;;;;;5064373;28;20231;-65
2023/08/22 02:45:47;;;;;;;3.67;1.52;;;23.10;99.90;;;;;;5065103;28;20833;-65
2023/08/22 02:48:14;;;;;;;2.97;1.50;;;23.10;99.90;;;;;;5065061;28;20247;-65
2023/08/22 02:50:41;;;;;;;4.05;1.70;;;23.10;99.90;;;;;;5064768;28;20213;-65
2023/08/22 02:53:09;;;;;;;3.85;1.85;;;23.10;99.90;;;;;;5064276;28;20200;-65
2023/08/22 02:55:37;;;;;;;3.58;1.63;;;23.10;99.90;;;;;;5080898;28;20593;-65
2023/08/22 02:58:05;;;;;;;4.13;1.85;;;23.10;99.90;;;;;;5092849;28;20210;-65
2023/08/22 03:00:33;;;;;;;4.32;1.80;;;23.10;99.90;;;;;;5084958;28;20262;-65
2023/08/22 03:03:02;;;;;;;4.00;1.60;;;23.10;99.90;;;;;;5083658;28;20271;-65
2023/08/22 03:05:32;;;;;;;4.18;1.80;;;23.10;99.90;;;;;;5063948;28;20620;-66
2023/08/22 03:07:59;;;;;;;4.45;1.77;;;23.10;99.90;;;;;;5078080;28;20318;-66
2023/08/22 03:10:26;;;;;;;2.28;1.83;;;23.10;99.90;;;;;;5085677;28;20298;-66
2023/08/22 03:12:53;;;;;;;3.17;1.85;;;23.10;99.90;;;;;;5085006;28;20220;-66
2023/08/22 03:15:20;;;;;;;3.83;1.92;;;23.10;99.90;;;;;;5085375;28;20246;-66
2023/08/22 03:17:47;;;;;;;4.75;2.03;;;23.10;99.90;;;;;;5085426;28;20211;-66
2023/08/22 03:20:15;;;;;;;3.70;2.10;;;23.00;99.90;;;;;;5085371;28;20293;-66
2023/08/22 03:22:42;;;;;;;3.28;1.90;;;23.00;99.90;;;;;;5085780;28;20317;-66
2023/08/22 03:25:09;;;;;;;3.85;1.58;;;23.00;99.90;;;;;;5083139;28;20256;-66
2023/08/22 03:27:36;;;;;;;3.30;1.80;;;23.00;99.90;;;;;;5065293;28;20214;-66
2023/08/22 03:30:04;;;;;;;4.40;1.75;;;22.90;99.90;;;;;;5065854;28;20690;-66
2023/08/22 03:32:31;;;;;;;2.47;1.77;;;22.90;99.90;;;;;;5065951;28;20238;-66
2023/08/22 03:34:58;;;;;;;2.72;1.90;;;22.90;99.90;;;;;;5065564;28;20765;-67
2023/08/22 03:37:26;;;;;;;2.42;1.92;;;23.00;99.90;;;;;;5065938;28;20232;-66
2023/08/22 03:39:53;;;;;;;3.63;1.75;;;23.00;99.90;;;;;;5065600;28;20207;-66
2023/08/22 03:42:20;;;;;;;3.10;1.80;;;23.00;99.90;;;;;;5102897;28;20297;-66
2023/08/22 03:44:48;;;;;;;3.72;1.90;;;23.00;99.90;;;;;;5106099;28;20232;-67
2023/08/22 03:47:15;;;;;;;3.88;1.60;;;22.90;99.90;;;;;;5106092;28;20496;-66
2023/08/22 03:49:42;;;;;;;3.80;2.03;;;23.00;99.90;;;;;;5106056;28;20238;-66
2023/08/22 03:52:08;;;;;;;2.53;1.90;;;23.00;99.90;;;;;;5104153;28;20242;-66
2023/08/22 03:54:37;;;;;;;2.83;1.95;;;23.00;99.90;;;;;;5085493;28;20317;-66
2023/08/22 03:57:04;;;;;;;5.28;1.70;;;22.90;99.90;;;;;;5085241;28;20665;-67
2023/08/22 03:59:30;;;;;;;3.33;1.65;;;22.90;99.90;;;;;;5084866;28;20345;-66
2023/08/22 04:01:58;;;;;;;11.10;1.90;;;22.90;99.90;;;;;;5085236;28;20519;-66
2023/08/22 04:04:24;;;;;;;3.80;1.83;;;22.80;99.90;;;;;;5084989;28;20227;-66
2023/08/22 04:06:51;;;;;;;3.90;2.03;;;22.80;99.90;;;;;;5085099;28;20309;-66
2023/08/22 04:09:18;;;;;;;4.28;1.80;;;22.70;99.90;;;;;;5067912;28;20209;-66
2023/08/22 04:11:46;;;;;;;6.25;1.60;;;22.70;99.90;;;;;;5073564;28;20242;-67
2023/08/22 04:14:13;;;;;;;4.80;1.85;;;22.80;99.90;;;;;;5065311;28;20213;-66
2023/08/22 04:16:40;;;;;;;3.53;1.98;;;22.70;99.90;;;;;;5064998;28;20224;-66
2023/08/22 04:19:07;;;;;;;2.88;1.60;;;22.70;99.90;;;;;;5065237;28;20221;-66
2023/08/22 04:21:34;;;;;;;4.57;2.25;;;22.80;99.90;;;;;;5065203;28;20290;-66
2023/08/22 04:24:00;;;;;;;4.90;1.90;;;22.70;99.90;;;;;;5075583;28;20704;-66
2023/08/22 04:26:27;;;;;;;5.47;2.00;;;22.80;99.90;;;;;;5084886;28;20214;-66
2023/08/22 04:28:56;;;;;;;5.15;2.28;;;22.70;99.90;;;;;;5085048;28;20792;-66
2023/08/22 04:31:22;;;;;;;3.47;2.40;;;22.70;99.90;;;;;;5085218;28;20687;-66
2023/08/22 04:33:49;;;;;;;3.00;2.10;;;22.70;99.90;;;;;;5085140;28;20210;-66
2023/08/22 04:36:16;;;;;;;4.80;1.85;;;22.70;99.90;;;;;;5085813;28;20203;-66
2023/08/22 04:38:43;;;;;;;3.30;1.85;;;22.70;99.90;;;;;;5084760;28;20229;-66
2023/08/22 04:41:10;;;;;;;4.50;1.75;;;22.80;99.90;;;;;;5085550;28;20207;-66
2023/08/22 04:43:36;;;;;;;2.33;2.05;;;22.80;99.90;;;;;;5084948;28;20310;-66
2023/08/22 04:46:05;;;;;;;3.38;1.63;;;22.80;99.90;;;;;;5085132;28;20313;-66
2023/08/22 04:48:32;;;;;;;3.63;2.08;;;22.80;99.90;;;;;;5084864;28;20248;-66
2023/08/22 04:50:58;;;;;;;4.40;1.70;;;22.80;99.90;;;;;;5064450;28;20297;-66
2023/08/22 04:53:26;;;;;;;2.97;1.90;;;22.80;99.90;;;;;;5064227;28;20318;-66
2023/08/22 04:55:53;;;;;;;4.20;1.90;;;22.80;99.90;;;;;;5064556;28;20256;-66
2023/08/22 04:58:19;;;;;;;4.72;1.90;;;22.80;99.90;;;;;;5064561;28;20280;-66
2023/08/22 05:00:47;;;;;;;3.40;2.00;;;22.70;99.90;;;;;;5064111;28;20253;-66
2023/08/22 05:03:19;;;;;;;3.15;1.85;;;22.60;99.90;;;;;;5064729;28;20324;-66
2023/08/22 05:05:46;;;;;;;3.00;1.70;;;22.60;99.90;;;;;;5083332;28;20199;-66
2023/08/22 05:08:13;;;;;;;2.88;1.58;;;22.70;99.90;;;;;;5065212;28;20231;-66
2023/08/22 05:10:40;;;;;;;3.10;1.67;;;22.70;99.90;;;;;;5069836;28;20298;-66
2023/08/22 05:13:07;;;;;;;2.28;1.60;;;22.70;99.90;;;;;;5089223;28;20203;-66
2023/08/22 05:15:34;;;;;;;5.40;1.90;;;22.80;99.90;;;;;;5088900;28;20207;-66
2023/08/22 05:18:00;;;;;;;6.75;1.50;;;22.80;99.90;;;;;;5088772;28;20306;-66
2023/08/22 05:20:28;;;;;;;10.02;1.98;;;22.80;99.90;;;;;;5088242;28;20213;-66
2023/08/22 05:22:55;;;;;;;4.90;1.52;;;22.80;99.90;;;;;;5088547;28;20293;-66
2023/08/22 05:25:22;;;;;;;3.80;1.58;;;22.90;99.90;;;;;;5088405;28;20221;-66
2023/08/22 05:27:48;;;;;;;3.72;1.60;;;22.80;99.90;;;;;;5088661;28;20297;-66
2023/08/22 05:30:15;;;;;;;2.20;1.70;;;22.80;99.90;;;;;;5079775;28;20204;-66
2023/08/22 05:32:42;;;;;;;5.78;1.67;;;22.80;99.90;;;;;;5068330;28;20234;-66
2023/08/22 05:35:09;;;;;;;10.65;1.88;;;22.80;99.90;;;;;;5068144;28;20690;-66
2023/08/22 05:37:38;;;;;;;6.13;1.80;;;22.80;99.90;;;;;;5067629;28;20314;-66
2023/08/22 05:40:08;;;;;;;2.97;1.55;;;22.90;99.90;;;;;;5068220;28;20203;-66
2023/08/22 05:42:34;;;;;;;5.43;1.52;;;22.90;99.90;;;;;;5067750;28;20214;-66
2023/08/22 05:45:01;;;;;;;2.05;1.50;;;22.80;99.90;;;;;;5067837;28;20242;-66
2023/08/22 05:47:28;;;;;;;4.40;1.83;;;22.80;99.90;;;;;;5067818;28;20208;-66
2023/08/22 05:49:55;;;;;;;4.10;1.52;;;22.90;99.90;;;;;;5067484;28;20524;-66
2023/08/22 05:52:25;;;;;;;7.30;2.42;;;22.90;99.90;;;;;;5067541;28;21141;-66
2023/08/22 05:54:53;;;;;;;3.80;1.58;;;22.90;99.90;;;;;;5067851;28;20210;-66
2023/08/22 05:57:22;;;;;;;5.65;1.67;;;23.00;99.90;;;;;;5067617;28;20321;-66
2023/08/22 05:59:49;;;;;;;5.07;1.85;;;23.00;99.90;;;;;;5067292;28;20239;-66
2023/08/22 06:02:16;;;;;;;1.98;1.50;;;23.00;99.90;;;;;;5087673;28;20299;-66
2023/08/22 06:04:44;;;;;;;5.03;1.73;;;23.00;99.90;;;;;;5087363;28;20226;-66
2023/08/22 06:07:11;;;;;;;2.85;1.90;;;23.00;99.90;;;;;;5087321;28;20822;-66
2023/08/22 06:09:38;;;;;;;3.45;1.80;;;23.00;99.90;;;;;;5087199;28;20293;-66
2023/08/22 06:12:08;;;;;;;5.55;2.08;;;23.00;99.90;;;;;;5087891;28;20236;-66
2023/08/22 06:14:35;;;;;;;9.20;2.03;;;23.00;99.90;;;;;;5087948;28;20630;-66
2023/08/22 06:17:02;;;;;;;4.22;1.98;;;23.10;99.90;;;;;;5087462;28;20301;-66
2023/08/22 06:19:29;;;;;;;4.82;1.75;;;23.10;99.90;;;;;;5087208;28;20207;-66
2023/08/22 06:21:56;;;;;;;2.53;1.67;;;23.10;99.90;;;;;;5086999;28;20209;-66
2023/08/22 06:24:23;;;;;;;3.42;1.90;;;23.10;99.90;;;;;;5087265;28;20249;-66
2023/08/22 06:26:50;;;;;;;4.05;2.08;;;23.10;99.90;;;;;;5087436;28;20209;-66
2023/08/22 06:29:18;;;;;;;3.42;1.70;;;23.10;99.90;;;;;;5086984;28;20669;-66
2023/08/22 06:31:45;;;;;;;2.47;1.60;;;23.20;99.90;;;;;;5087264;28;20239;-67
2023/08/22 06:34:12;;;;;;;3.42;1.70;;;23.10;99.90;;;;;;5087154;28;20330;-65
2023/08/22 06:36:39;;;;;;;5.00;1.77;;;23.10;99.90;;;;;;5086701;28;20307;-65
2023/08/22 06:39:06;;;;;;;6.28;1.88;;;23.10;99.90;;;;;;5087205;28;20211;-65
2023/08/22 06:41:35;;;;;;;6.55;1.88;;;23.10;99.90;;;;;;5082883;28;20207;-65
2023/08/22 06:44:09;;;;;;;3.47;1.88;;;23.20;99.90;;;;;;5066799;28;20241;-67
2023/08/22 06:50:04;;;;;;;4.68;2.08;;;23.20;99.90;;;;;;5042907;28;20218;-67
2023/08/22 06:52:31;;;;;;;5.13;1.85;;;23.30;99.90;;;;;;5066016;28;20461;-64
2023/08/22 06:54:58;;;;;;;3.53;1.63;;;23.30;99.90;;;;;;5065948;28;20294;-65
2023/08/22 06:57:25;;;;;;;2.63;1.77;;;23.40;99.90;;;;;;5089369;28;20202;-64
2023/08/22 06:59:52;;;;;;;2.70;1.45;;;23.40;99.90;;;;;;5106492;28;20337;-65
2023/08/22 07:02:20;;;;;;;3.38;1.90;;;23.40;99.90;;;;;;5066137;28;20856;-64
2023/08/22 07:04:49;;;;;;;2.78;1.85;;;23.40;99.90;;;;;;5065730;28;20238;-64
2023/08/22 07:07:15;;;;;;;3.85;1.60;;;23.40;99.90;;;;;;5065852;28;20277;-65
2023/08/22 07:09:42;;;;;;;8.82;2.55;;;23.40;99.90;;;;;;5065771;28;20775;-65
2023/08/22 07:12:09;;;;;;;4.82;1.70;;;23.40;99.90;;;;;;5083310;28;20730;-64
2023/08/22 07:14:41;;;;;;;3.30;1.50;;;23.30;99.90;;;;;;5086138;28;20285;-65
2023/08/22 07:17:08;;;;;;;4.55;1.90;;;23.40;99.90;;;;;;5086311;28;20206;-65
2023/08/22 07:19:37;;;;;;;6.43;1.63;;;23.40;99.90;;;;;;5067176;28;20296;-64
2023/08/22 07:22:04;;;;;;;2.63;1.50;;;23.40;99.90;;;;;;5065744;28;20301;-65
2023/08/22 07:24:30;;;;;;;2.83;1.73;;;23.40;99.90;;;;;;5065667;28;20328;-67
2023/08/22 07:26:57;;;;;;;6.50;1.85;;;23.50;99.90;;;;;;5065709;28;20203;-67
2023/08/22 07:29:24;;;;;;;3.80;1.50;;;23.40;99.90;;;;;;5065449;28;20747;-67
2023/08/22 07:31:52;;;;;;;3.83;1.95;;;23.50;99.90;;;;;;5065793;28;20581;-67
2023/08/22 07:34:19;;;;;;;3.83;1.60;;;23.50;99.90;;;;;;5064858;28;20207;-64
2023/08/22 07:36:47;;;;;;;9.38;2.25;;;23.50;99.90;;;;;;5065341;28;20280;-65
2023/08/22 07:39:15;;;;;;;3.58;1.90;;;23.50;99.90;;;;;;5084806;28;20635;-67
2023/08/22 07:41:42;;;;;;;5.95;1.80;;;23.50;99.90;;;;;;5086102;28;20271;-67
2023/08/22 07:44:09;;;;;;;6.78;1.85;;;23.60;99.90;;;;;;5085738;28;20331;-65
2023/08/22 07:46:36;;;;;;;3.38;1.90;;;23.60;99.90;;;;;;5085472;28;20202;-64
2023/08/22 07:49:02;;;;;;;2.92;1.83;;;23.60;99.90;;;;;;5085923;28;20253;-65
2023/08/22 07:51:30;;;;;;;2.38;1.90;;;23.60;99.90;;;;;;5085422;28;20211;-64
2023/08/22 07:53:58;;;;;;;7.30;2.13;;;23.70;99.90;;;;;;5099069;28;20251;-65
2023/08/22 07:56:25;;;;;;;5.60;1.90;;;23.70;99.90;;;;;;5102945;28;20207;-64
2023/08/22 07:58:52;;;;;;;2.38;1.80;;;23.80;99.90;;;;;;5085321;28;20238;-65
2023/08/22 08:01:19;;;;;;;8.52;2.45;;;23.80;99.90;;;;;;5085656;28;20271;-65
2023/08/22 08:03:46;;;;;;;3.67;1.77;;;23.80;99.90;;;;;;5085205;28;20297;-65
2023/08/22 08:06:13;;;;;;;4.47;1.80;;;23.90;99.90;;;;;;5085006;28;20242;-64
2023/08/22 08:08:40;;;;;;;6.07;2.72;;;23.90;99.90;;;;;;5084464;28;20732;-65
2023/08/22 08:11:08;;;;;;;5.93;2.70;;;23.90;99.90;;;;;;5085368;28;20234;-65
2023/08/22 08:13:35;;;;;;;5.93;1.90;;;23.90;99.90;;;;;;5085488;28;20297;-64
2023/08/22 08:16:02;;;;;;;2.53;1.92;;;23.80;99.90;;;;;;5064601;28;20588;-67
2023/08/22 08:18:29;;;;;;;4.30;2.00;;;23.80;99.90;;;;;;5064806;28;20231;-67
2023/08/22 08:20:56;;;;;;;3.83;1.73;;;23.80;99.90;;;;;;5064603;28;20230;-65
2023/08/22 08:23:22;;;;;;;3.55;1.70;;;23.80;99.90;;;;;;5076390;28;20234;-67
2023/08/22 08:25:49;;;;;;;2.05;1.77;;;23.80;99.90;;;;;;5084758;28;21002;-64
2023/08/22 08:28:18;;;;;;;5.00;2.00;;;23.80;99.90;;;;;;5085090;28;20294;-64
2023/08/22 08:30:45;;;;;;;3.15;1.80;;;23.80;99.90;;;;;;5084665;28;20666;-65
2023/08/22 08:33:11;;;;;;;6.25;1.83;;;23.90;99.90;;;;;;5084896;28;20297;-65
2023/08/22 08:35:38;;;;;;;3.80;1.92;;;24.00;99.90;;;;;;5087153;28;21018;-65
2023/08/22 08:38:05;;;;;;;4.50;2.08;;;24.00;99.90;;;;;;5084729;28;20254;-65
2023/08/22 08:40:36;;;;;;;2.65;1.63;;;24.00;99.90;;;;;;5088387;28;20242;-65
2023/08/22 08:43:03;;;;;;;3.38;1.77;;;24.10;99.90;;;;;;5105350;28;20190;-65
2023/08/22 08:45:34;;;;;;;3.78;1.80;;;24.00;99.90;;;;;;5107812;28;20237;-65
2023/08/22 08:48:02;;;;;;;4.47;1.92;;;24.00;99.90;;;;;;5112024;28;20202;-65
2023/08/22 08:50:31;;;;;;;4.97;2.00;;;24.00;99.90;;;;;;5111607;28;20228;-64
2023/08/22 08:52:59;;;;;;;3.05;1.60;;;24.00;99.90;;;;;;5101118;28;20211;-64
2023/08/22 08:55:26;;;;;;;4.53;1.70;;;24.00;99.90;;;;;;5070944;28;20207;-65
2023/08/22 08:57:53;;;;;;;3.42;2.25;;;24.00;99.90;;;;;;5071095;28;20775;-64
2023/08/22 09:00:20;;;;;;;3.25;1.70;;;24.00;99.90;;;;;;5070871;28;20296;-65
2023/08/22 09:02:49;;;;;;;15.27;2.92;;;24.10;99.90;;;;;;5071338;28;20610;-65
2023/08/22 09:05:17;;;;;;;6.40;2.15;;;24.20;99.90;;;;;;5071286;28;20237;-65
2023/08/22 09:07:44;;;;;;;4.50;1.60;;;24.30;99.90;;;;;;5070797;28;20338;-65
2023/08/22 09:10:11;;;;;;;3.88;2.00;;;24.40;99.90;;;;;;5073119;28;20211;-65
2023/08/22 09:12:39;;;;;;;2.92;1.63;;;24.40;99.90;;;;;;5111570;27;20292;-65
2023/08/22 09:15:09;;;;;;;5.00;2.05;;;24.40;99.90;;;;;;5110938;28;20588;-65
2023/08/22 09:17:38;;;;;;;6.38;1.98;;;24.50;99.90;;;;;;5111428;27;20206;-64
2023/08/22 09:20:10;;;;;;;3.67;1.63;;;24.60;99.90;;;;;;5111143;28;20241;-65
2023/08/22 09:22:37;;;;;;;3.60;1.70;;;24.50;99.90;;;;;;5106350;27;20191;-65
2023/08/22 09:25:07;;;;;;;4.05;2.00;;;24.60;99.90;;;;;;5091187;28;20257;-65
2023/08/22 09:27:34;;;;;;;4.65;1.60;;;24.60;99.90;;;;;;5091151;28;20237;-65
2023/08/22 09:30:04;;;;;;;4.60;1.75;;;24.60;99.90;;;;;;5087667;28;20307;-65
2023/08/22 09:32:31;;;;;;;4.03;2.47;;;24.60;99.90;;;;;;5090867;28;20206;-64
2023/08/22 09:35:00;;;;;;;7.82;2.08;;;24.60;99.90;;;;;;5091198;28;20238;-65
2023/08/22 09:37:32;;;;;;;5.80;1.90;;;24.60;99.90;;;;;;5090582;28;20218;-65
2023/08/22 09:39:59;;;;;;;2.05;1.75;;;24.70;99.90;;;;;;5090865;28;20297;-65
2023/08/22 09:42:28;;;;;;;2.67;1.67;;;24.70;99.90;;;;;;5110598;28;20570;-65
2023/08/22 09:44:57;;;;;;;5.88;2.13;;;24.80;99.90;;;;;;5111703;28;20661;-64
2023/08/22 09:47:26;;;;;;;4.07;2.17;;;24.80;99.90;;;;;;5111617;28;20214;-65
2023/08/22 09:49:56;;;;;;;3.03;1.80;;;24.80;99.90;;;;;;5100784;27;20206;-65
2023/08/22 09:52:25;;;;;;;5.63;2.08;;;24.80;99.90;;;;;;5090010;28;20195;-67
2023/08/22 09:54:54;;;;;;;4.28;1.48;;;24.80;99.90;;;;;;5071076;28;20314;-64
2023/08/22 09:57:21;;;;;;;3.08;1.85;;;24.80;99.90;;;;;;5068305;28;20665;-65
2023/08/22 09:59:49;;;;;;;5.22;2.22;;;24.80;99.90;;;;;;5067095;28;20233;-65
2023/08/22 10:02:18;;;;;;;3.90;2.05;;;24.80;99.90;;;;;;5067640;28;20214;-65
2023/08/22 10:04:45;;;;;;;2.78;1.88;;;24.80;99.90;;;;;;5067660;28;20238;-65
2023/08/22 10:07:12;;;;;;;5.28;1.98;;;24.80;99.90;;;;;;5075952;28;21034;-65
2023/08/22 10:09:39;;;;;;;2.67;1.85;;;24.90;99.90;;;;;;5087145;28;20207;-65
2023/08/22 10:12:11;;;;;;;8.10;2.10;;;24.90;99.90;;;;;;5087495;28;20209;-65
2023/08/22 10:14:42;;;;;;;3.15;1.77;;;24.90;99.90;;;;;;5087297;28;20281;-65
2023/08/22 10:17:13;;;;;;;3.28;1.90;;;24.90;99.90;;;;;;5087361;28;20191;-65
2023/08/22 10:19:40;;;;;;;2.60;2.00;;;24.90;99.90;;;;;;5087006;28;20260;-65
2023/08/22 10:22:08;;;;;;;3.83;1.83;;;25.00;99.90;;;;;;5087210;28;20206;-64
2023/08/22 10:24:35;;;;;;;5.63;1.95;;;25.00;99.90;;;;;;5087377;28;20298;-64
2023/08/22 10:27:04;;;;;;;4.50;2.33;;;25.00;99.90;;;;;;5079568;28;20211;-65
2023/08/22 10:29:37;;;;;;;3.42;1.90;;;25.00;99.90;;;;;;5066509;28;20230;-65
2023/08/22 10:32:23;;;;;;;3.42;2.00;;;25.00;99.90;;;;;;5067140;28;20294;-65
2023/08/22 10:35:21;;;;;;;4.05;2.28;;;25.00;99.90;;;;;;5066918;28;20203;-65
2023/08/22 10:37:49;;;;;;;5.10;2.17;;;25.00;99.90;;;;;;5066549;28;20231;-65
2023/08/22 10:40:31;;;;;;;2.95;2.03;;;25.00;99.90;;;;;;5069924;28;20235;-65
2023/08/22 10:43:18;;;;;;;5.78;2.35;;;25.00;99.90;;;;;;5107464;28;20190;-65
2023/08/22 10:45:51;;;;;;;8.48;2.13;;;24.90;99.90;;;;;;5093124;28;20244;-65
2023/08/22 10:48:20;;;;;;;6.55;2.33;;;24.90;99.90;;;;;;5087282;28;20299;-65
2023/08/22 10:50:50;;;;;;;15.80;3.33;;;25.00;99.90;;;;;;5086551;28;20214;-65
2023/08/22 10:53:18;;;;;;;12.25;2.83;;;25.00;99.90;;;;;;5086654;28;20669;-65
2023/08/22 10:55:46;;;;;;;5.63;2.20;;;25.00;99.90;;;;;;5086404;28;20248;-65
2023/08/22 10:58:40;;;;;;;7.85;2.45;;;25.00;99.90;;;;;;5086740;28;20587;-65
2023/08/22 11:01:11;;;;;;;6.30;2.20;;;25.00;99.90;;;;;;5086505;28;20278;-65
2023/08/22 11:03:38;;;;;;;3.13;2.10;;;25.10;99.90;;;;;;5085832;28;20298;-65
2023/08/22 11:06:13;;;;;;;4.85;1.95;;;25.10;99.90;;;;;;5086107;28;20230;-65
2023/08/22 11:08:42;;;;;;;3.55;1.98;;;25.20;99.90;;;;;;5084673;28;20210;-65
2023/08/22 11:11:11;;;;;;;4.35;2.00;;;25.20;99.90;;;;;;5086604;28;20314;-65
2023/08/22 11:13:39;;;;;;;2.65;1.98;;;25.20;99.90;;;;;;5086453;28;20249;-65
2023/08/22 11:16:11;;;;;;;7.70;1.92;;;25.30;99.90;;;;;;5086479;28;20293;-65
2023/08/22 11:18:39;;;;;;;8.90;2.20;;;25.30;99.90;;;;;;5086283;28;20492;-65
2023/08/22 11:21:06;;;;;;;3.10;1.80;;;25.30;99.90;;;;;;5086134;28;20206;-65
2023/08/22 11:23:34;;;;;;;5.10;2.05;;;25.40;99.90;;;;;;5075812;28;20203;-65
2023/08/22 11:26:02;;;;;;;3.13;1.75;;;25.40;99.90;;;;;;5065902;28;20241;-65
2023/08/22 11:28:32;;;;;;;3.47;1.83;;;25.50;99.90;;;;;;5065547;28;20761;-65
2023/08/22 11:31:00;;;;;;;5.07;2.00;;;25.60;99.90;;;;;;5065686;28;20299;-65
2023/08/22 11:33:35;;;;;;;5.72;1.88;;;25.70;99.90;;;;;;5065526;28;20535;-65
2023/08/22 11:36:03;;;;;;;5.03;1.95;;;25.70;99.90;;;;;;5065563;28;20203;-65
2023/08/22 11:38:33;;;;;;;4.70;2.00;;;25.70;99.90;;;;;;5065508;28;20212;-65
2023/08/22 11:41:01;;;;;;;3.88;1.95;;;25.80;99.90;;;;;;5080538;28;20755;-66
2023/08/22 11:43:28;;;;;;;5.30;2.05;;;25.80;99.90;;;;;;5086606;28;20210;-66
2023/08/22 11:45:55;;;;;;;2.53;1.75;;;25.90;99.90;;;;;;5086130;28;20743;-66
2023/08/22 11:48:23;;;;;;;4.78;1.92;;;25.90;99.90;;;;;;5086000;28;20613;-65
2023/08/22 11:50:52;;;;;;;7.25;2.30;;;26.10;99.90;;;;;;5085582;28;20665;-65
2023/08/22 11:53:18;;;;;;;2.67;1.80;;;26.20;99.90;;;;;;5085096;28;20203;-65
2023/08/22 11:55:49;;;;;;;4.60;2.20;;;26.20;99.90;;;;;;5085024;28;20314;-65
2023/08/22 11:58:17;;;;;;;6.72;2.00;;;26.30;99.90;;;;;;5085315;28;20206;-65
2023/08/22 12:00:44;;;;;;;4.25;2.25;;;26.30;99.90;;;;;;5067518;28;20246;-65
2023/08/22 12:03:11;;;;;;;5.18;2.08;;;26.40;99.90;;;;;;5065232;28;20211;-65
2023/08/22 12:05:39;;;;;;;2.33;2.05;;;26.40;99.90;;;;;;5065116;28;20234;-65
2023/08/22 12:08:20;;;;;;;3.53;1.80;;;26.40;99.90;;;;;;5064855;28;20211;-65
2023/08/22 12:10:48;;;;;;;4.72;2.20;;;26.40;99.90;;;;;;5070710;28;20732;-66
2023/08/22 12:13:17;;;;;;;3.08;1.75;;;26.40;99.90;;;;;;5085755;28;20203;-65
2023/08/22 12:15:45;;;;;;;3.42;1.92;;;26.50;99.90;;;;;;5085567;28;20238;-65
2023/08/22 12:18:12;;;;;;;4.05;1.90;;;26.60;99.90;;;;;;5085567;28;20217;-65
2023/08/22 12:20:40;;;;;;;2.33;2.08;;;26.60;99.90;;;;;;5084651;28;20213;-66
2023/08/22 12:23:09;;;;;;;5.15;1.92;;;26.70;99.90;;;;;;5084727;28;20806;-66
2023/08/22 12:25:38;;;;;;;4.57;1.90;;;26.70;99.90;;;;;;5084699;28;20296;-66
2023/08/22 12:28:06;;;;;;;4.07;1.80;;;26.70;99.90;;;;;;5084829;28;20666;-66
2023/08/22 12:30:34;;;;;;;6.78;2.40;;;26.60;99.90;;;;;;5084375;28;20203;-66
2023/08/22 12:33:03;;;;;;;7.93;2.33;;;26.60;99.90;;;;;;5085087;28;20210;-66
2023/08/22 12:35:30;;;;;;;2.72;2.03;;;26.50;99.90;;;;;;5084374;28;20210;-66
2023/08/22 12:37:57;;;;;;;2.35;1.90;;;26.50;99.90;;;;;;5084668;28;20317;-66
2023/08/22 12:40:24;;;;;;;3.95;2.05;;;26.40;99.90;;;;;;5084397;28;20675;-66
2023/08/22 12:42:52;;;;;;;7.85;2.55;;;26.40;99.90;;;;;;5084702;28;20294;-66
2023/08/22 12:45:19;;;;;;;2.92;2.00;;;26.40;99.90;;;;;;5084446;28;20213;-66
2023/08/22 12:47:46;;;;;;;3.22;2.08;;;26.30;99.90;;;;;;5084770;28;20222;-66
2023/08/22 12:50:13;;;;;;;3.60;2.50;;;26.30;99.90;;;;;;5084700;28;20210;-66
2023/08/22 12:52:40;;;;;;;7.10;2.67;;;26.30;99.90;;;;;;5084455;28;20206;-66